createdAt,value
2018-10-03T00:00:06.082Z,56.48
2018-10-03T00:01:06.116Z,56.29
2018-10-03T00:02:06.139Z,56.2
2018-10-03T00:03:05.917Z,56.1
2018-10-03T00:04:06.199Z,56.2
2018-10-03T00:05:05.962Z,56.2
2018-10-03T00:06:05.986Z,56.1
2018-10-03T00:07:06.270Z,56.38
2018-10-03T00:08:06.031Z,56.2
2018-10-03T00:09:06.320Z,56.1
2018-10-03T00:10:06.347Z,56.29
2018-10-03T00:11:06.370Z,56.58
2018-10-03T00:12:06.139Z,56.29
2018-10-03T00:13:06.167Z,55.9
2018-10-03T00:14:06.449Z,56.1
2018-10-03T00:15:06.489Z,56.58
2018-10-03T00:16:06.505Z,56.29
2018-10-03T00:17:06.268Z,56.2
2018-10-03T00:18:06.549Z,56.38
2018-10-03T00:19:06.584Z,56.2
2018-10-03T00:20:06.618Z,56
2018-10-03T00:21:06.377Z,56.29
2018-10-03T00:22:06.408Z,56.29
2018-10-03T00:23:06.685Z,56.58
2018-10-03T00:24:06.451Z,56.2
2018-10-03T00:25:06.737Z,56.58
2018-10-03T00:26:06.773Z,56.1
2018-10-03T00:27:06.536Z,56.38
2018-10-03T00:28:06.819Z,56.29
2018-10-03T00:29:06.844Z,56.38
2018-10-03T00:30:06.868Z,56.48
2018-10-03T00:31:06.907Z,56.58
2018-10-03T00:32:06.661Z,56.58
2018-10-03T00:33:06.687Z,56.58
2018-10-03T00:34:06.712Z,56.58
2018-10-03T00:35:06.743Z,56.48
2018-10-03T00:36:06.769Z,56.58
2018-10-03T00:37:07.051Z,56.48
2018-10-03T00:38:06.818Z,56.58
2018-10-03T00:39:06.845Z,56.48
2018-10-03T00:40:06.867Z,56.58
2018-10-03T00:41:07.150Z,56.2
2018-10-03T00:42:06.924Z,56.58
2018-10-03T00:43:06.950Z,56.29
2018-10-03T00:44:07.229Z,56.58
2018-10-03T00:45:07.257Z,56.2
2018-10-03T00:46:07.290Z,56.38
2018-10-03T00:47:07.058Z,56.2
2018-10-03T00:48:07.331Z,56.2
2018-10-03T00:49:07.108Z,56.48
2018-10-03T00:50:07.136Z,56.58
2018-10-03T00:51:07.158Z,56.2
2018-10-03T00:52:07.185Z,56.29
2018-10-03T00:53:07.209Z,56.29
2018-10-03T00:54:07.489Z,56.58
2018-10-03T00:55:07.516Z,56.2
2018-10-03T00:56:07.543Z,56.58
2018-10-03T00:57:07.569Z,56.29
2018-10-03T00:58:07.594Z,56.2
2018-10-03T00:59:07.378Z,56.2
2018-10-03T01:00:07.646Z,56.38
2018-10-03T01:01:07.677Z,56.29
2018-10-03T01:02:07.700Z,56.38
2018-10-03T01:03:07.727Z,56.58
2018-10-03T01:04:07.759Z,56.29
2018-10-03T01:05:07.781Z,56.38
2018-10-03T01:06:07.548Z,56.38
2018-10-03T01:07:07.571Z,56.38
2018-10-03T01:08:07.861Z,56.2
2018-10-03T01:09:07.632Z,56.1
2018-10-03T01:10:07.653Z,56.2
2018-10-03T01:11:07.936Z,56.29
2018-10-03T01:12:07.704Z,56.1
2018-10-03T01:13:07.988Z,56.2
2018-10-03T01:14:08.011Z,56.2
2018-10-03T01:15:07.790Z,56.2
2018-10-03T01:16:08.067Z,56.2
2018-10-03T01:17:08.093Z,56.38
2018-10-03T01:18:07.863Z,56.29
2018-10-03T01:19:08.150Z,56.38
2018-10-03T01:20:08.174Z,56.38
2018-10-03T01:21:08.206Z,56.38
2018-10-03T01:22:08.223Z,56.1
2018-10-03T01:23:08.249Z,56.1
2018-10-03T01:24:08.016Z,56.29
2018-10-03T01:25:08.048Z,56.38
2018-10-03T01:26:08.066Z,56.29
2018-10-03T01:27:08.355Z,56.38
2018-10-03T01:28:08.118Z,56.38
2018-10-03T01:29:08.411Z,56.1
2018-10-03T01:30:08.171Z,56.1
2018-10-03T01:31:08.458Z,56.2
2018-10-03T01:32:08.227Z,56.1
2018-10-03T01:33:08.508Z,56.29
2018-10-03T01:34:08.279Z,56.58
2018-10-03T01:35:08.300Z,56.1
2018-10-03T01:36:08.330Z,56.1
2018-10-03T01:37:08.356Z,56.58
2018-10-03T01:38:08.657Z,56.1
2018-10-03T01:39:08.402Z,56.29
2018-10-03T01:40:08.688Z,56.58
2018-10-03T01:41:08.713Z,56.2
2018-10-03T01:42:08.740Z,56.29
2018-10-03T01:43:08.766Z,56.26
2018-10-03T01:44:08.544Z,56.38
2018-10-03T01:45:08.816Z,56.58
2018-10-03T01:46:08.586Z,56.29
2018-10-03T01:47:08.613Z,56.77
2018-10-03T01:48:08.903Z,56.1
2018-10-03T01:49:08.660Z,56.65
2018-10-03T01:50:08.957Z,56.58
2018-10-03T01:51:08.977Z,56.29
2018-10-03T01:52:08.748Z,56.67
2018-10-03T01:53:09.029Z,56.29
2018-10-03T01:54:09.053Z,56.67
2018-10-03T01:55:09.082Z,56.67
2018-10-03T01:56:09.111Z,56.38
2018-10-03T01:57:08.870Z,56.1
2018-10-03T01:58:08.898Z,56.1
2018-10-03T01:59:09.180Z,56.1
2018-10-03T02:00:09.202Z,56.1
2018-10-03T02:01:09.229Z,56.67
2018-10-03T02:02:09.259Z,56.1
2018-10-03T02:03:09.028Z,56.1
2018-10-03T02:04:09.053Z,56.38
2018-10-03T02:05:09.086Z,56.29
2018-10-03T02:06:09.363Z,56.38
2018-10-03T02:07:09.390Z,56.1
2018-10-03T02:08:09.152Z,56.1
2018-10-03T02:09:09.444Z,56.29
2018-10-03T02:10:09.471Z,56.58
2018-10-03T02:11:09.504Z,56.48
2018-10-03T02:12:09.524Z,56.48
2018-10-03T02:13:09.539Z,56.58
2018-10-03T02:14:09.309Z,56.67
2018-10-03T02:15:09.594Z,56.1
2018-10-03T02:16:09.359Z,56.1
2018-10-03T02:17:09.646Z,56.67
2018-10-03T02:18:09.667Z,56.58
2018-10-03T02:19:09.729Z,56.29
2018-10-03T02:20:09.836Z,56.48
2018-10-03T02:21:09.752Z,56.58
2018-10-03T02:22:09.517Z,56.77
2018-10-03T02:23:09.807Z,56.1
2018-10-03T02:24:09.569Z,56.29
2018-10-03T02:25:09.596Z,56.48
2018-10-03T02:26:09.622Z,56.29
2018-10-03T02:27:09.904Z,56.67
2018-10-03T02:28:09.681Z,56.29
2018-10-03T02:29:09.957Z,56.58
2018-10-03T02:30:10.026Z,56.29
2018-10-03T02:31:10.008Z,56.38
2018-10-03T02:32:10.042Z,56.38
2018-10-03T02:33:10.070Z,56.58
2018-10-03T02:34:10.097Z,56.67
2018-10-03T02:35:10.129Z,56.67
2018-10-03T02:36:10.147Z,57.06
2018-10-03T02:37:09.910Z,56.48
2018-10-03T02:38:10.189Z,56.55
2018-10-03T02:39:09.965Z,56.58
2018-10-03T02:40:09.987Z,56.55
2018-10-03T02:41:10.017Z,56.77
2018-10-03T02:42:10.035Z,56.96
2018-10-03T02:43:10.061Z,56.77
2018-10-03T02:44:10.091Z,56.38
2018-10-03T02:45:10.115Z,56.67
2018-10-03T02:46:10.410Z,56.58
2018-10-03T02:47:10.426Z,56.38
2018-10-03T02:48:10.191Z,56.77
2018-10-03T02:49:10.475Z,56.58
2018-10-03T02:50:10.241Z,56.67
2018-10-03T02:51:10.270Z,56.67
2018-10-03T02:52:10.548Z,56.77
2018-10-03T02:53:10.320Z,56.77
2018-10-03T02:54:10.601Z,56.67
2018-10-03T02:55:10.371Z,56.58
2018-10-03T02:56:10.652Z,56.58
2018-10-03T02:57:10.691Z,56.74
2018-10-03T02:58:10.706Z,56.29
2018-10-03T02:59:10.741Z,56.77
2018-10-03T03:00:10.764Z,56.36
2018-10-03T03:01:10.790Z,56.77
2018-10-03T03:02:10.811Z,56.58
2018-10-03T03:03:10.835Z,56.96
2018-10-03T03:04:10.868Z,57.06
2018-10-03T03:05:16.902Z,56.48
2018-10-03T03:06:10.917Z,56.96
2018-10-03T03:07:10.937Z,56.77
2018-10-03T03:08:10.965Z,56.77
2018-10-03T03:09:11.125Z,56.74
2018-10-03T03:10:11.021Z,56.65
2018-10-03T03:11:11.045Z,56.77
2018-10-03T03:12:11.072Z,56.74
2018-10-03T03:13:11.103Z,56.48
2018-10-03T03:14:11.128Z,56.74
2018-10-03T03:15:11.147Z,56.48
2018-10-03T03:16:11.178Z,56.58
2018-10-03T03:17:11.217Z,56.65
2018-10-03T03:18:11.219Z,56.58
2018-10-03T03:19:10.989Z,56.58
2018-10-03T03:20:11.277Z,56.65
2018-10-03T03:21:11.306Z,56.77
2018-10-03T03:22:11.079Z,56.45
2018-10-03T03:23:11.357Z,56.58
2018-10-03T03:24:11.381Z,56.58
2018-10-03T03:25:11.401Z,56.67
2018-10-03T03:26:11.176Z,56.65
2018-10-03T03:27:11.461Z,56.77
2018-10-03T03:28:11.483Z,56.96
2018-10-03T03:29:11.514Z,56.58
2018-10-03T03:30:11.542Z,56.65
2018-10-03T03:31:11.560Z,56.77
2018-10-03T03:32:11.597Z,56.65
2018-10-03T03:33:11.611Z,56.96
2018-10-03T03:34:11.637Z,56.67
2018-10-03T03:35:11.663Z,56.93
2018-10-03T03:36:11.685Z,56.77
2018-10-03T03:37:11.714Z,56.55
2018-10-03T03:38:11.739Z,56.77
2018-10-03T03:39:11.780Z,56.96
2018-10-03T03:40:11.550Z,56.96
2018-10-03T03:41:11.563Z,56.96
2018-10-03T03:42:11.867Z,56.87
2018-10-03T03:43:11.611Z,56.77
2018-10-03T03:44:11.644Z,56.77
2018-10-03T03:45:11.670Z,56.96
2018-10-03T03:46:11.946Z,56.87
2018-10-03T03:47:11.969Z,56.96
2018-10-03T03:48:11.997Z,56.77
2018-10-03T03:49:12.021Z,56.58
2018-10-03T03:50:12.045Z,56.77
2018-10-03T03:51:12.088Z,57.15
2018-10-03T03:52:12.097Z,56.67
2018-10-03T03:53:12.131Z,56.67
2018-10-03T03:54:12.161Z,57.15
2018-10-03T03:55:12.188Z,56.77
2018-10-03T03:56:11.949Z,56.93
2018-10-03T03:57:12.236Z,56.96
2018-10-03T03:58:12.256Z,57.06
2018-10-03T03:59:12.290Z,56.93
2018-10-03T04:00:12.311Z,56.96
2018-10-03T04:01:12.338Z,56.96
2018-10-03T04:02:12.364Z,56.96
2018-10-03T04:03:12.385Z,56.96
2018-10-03T04:04:12.417Z,57.13
2018-10-03T04:05:12.435Z,57.03
2018-10-03T04:06:12.207Z,57.15
2018-10-03T04:07:12.501Z,56.96
2018-10-03T04:08:12.517Z,56.87
2018-10-03T04:09:12.540Z,57.06
2018-10-03T04:10:12.570Z,56.87
2018-10-03T04:11:12.592Z,56.84
2018-10-03T04:12:12.621Z,56.77
2018-10-03T04:13:12.665Z,56.96
2018-10-03T04:14:12.415Z,56.96
2018-10-03T04:15:12.700Z,57.06
2018-10-03T04:16:12.720Z,56.84
2018-10-03T04:17:12.507Z,56.96
2018-10-03T04:18:12.771Z,56.96
2018-10-03T04:19:12.795Z,56.87
2018-10-03T04:20:12.577Z,56.87
2018-10-03T04:21:12.857Z,57.15
2018-10-03T04:22:12.883Z,57.06
2018-10-03T04:23:12.907Z,56.96
2018-10-03T04:24:12.677Z,56.96
2018-10-03T04:25:12.710Z,56.58
2018-10-03T04:26:12.991Z,56.58
2018-10-03T04:27:12.747Z,56.96
2018-10-03T04:28:12.778Z,57.06
2018-10-03T04:29:13.062Z,57.15
2018-10-03T04:30:13.087Z,56.58
2018-10-03T04:31:13.109Z,56.96
2018-10-03T04:32:13.136Z,57.15
2018-10-03T04:33:12.911Z,57.35
2018-10-03T04:34:13.189Z,57.06
2018-10-03T04:35:13.268Z,57.15
2018-10-03T04:36:13.244Z,57.25
2018-10-03T04:37:13.269Z,57.25
2018-10-03T04:38:13.291Z,57.15
2018-10-03T04:39:13.327Z,57.06
2018-10-03T04:40:13.346Z,57.13
2018-10-03T04:41:13.374Z,57.06
2018-10-03T04:42:13.541Z,57.06
2018-10-03T04:43:13.422Z,57.06
2018-10-03T04:44:13.457Z,57.25
2018-10-03T04:45:13.482Z,57.06
2018-10-03T04:46:13.240Z,57.25
2018-10-03T04:47:13.270Z,57.06
2018-10-03T04:48:13.297Z,57.06
2018-10-03T04:49:13.317Z,57.15
2018-10-03T04:50:13.606Z,57.15
2018-10-03T04:51:13.623Z,57.15
2018-10-03T04:52:13.653Z,57.06
2018-10-03T04:53:13.424Z,57.15
2018-10-03T04:54:13.448Z,57.06
2018-10-03T04:55:13.481Z,57.06
2018-10-03T04:56:13.507Z,57.03
2018-10-03T04:57:13.786Z,57.35
2018-10-03T04:58:13.815Z,57.06
2018-10-03T04:59:13.844Z,57.25
2018-10-03T05:00:13.860Z,57.25
2018-10-03T05:01:13.885Z,57.22
2018-10-03T05:02:13.913Z,57.06
2018-10-03T05:03:13.937Z,57.15
2018-10-03T05:04:13.966Z,57.03
2018-10-03T05:05:13.730Z,57.06
2018-10-03T05:06:14.016Z,57.06
2018-10-03T05:07:13.788Z,57.06
2018-10-03T05:08:14.061Z,57.15
2018-10-03T05:09:14.091Z,57.22
2018-10-03T05:10:14.119Z,57.06
2018-10-03T05:11:14.255Z,56.96
2018-10-03T05:12:14.372Z,57.15
2018-10-03T05:13:14.208Z,57.25
2018-10-03T05:14:13.967Z,57.03
2018-10-03T05:15:13.992Z,57.03
2018-10-03T05:16:14.271Z,57.06
2018-10-03T05:17:14.302Z,56.87
2018-10-03T05:18:14.324Z,56.87
2018-10-03T05:19:14.360Z,56.93
2018-10-03T05:20:14.380Z,56.93
2018-10-03T05:21:14.401Z,56.87
2018-10-03T05:22:14.430Z,56.93
2018-10-03T05:23:14.195Z,56.93
2018-10-03T05:24:14.487Z,56.77
2018-10-03T05:25:14.503Z,56.84
2018-10-03T05:26:14.276Z,56.93
2018-10-03T05:27:14.558Z,56.93
2018-10-03T05:28:14.591Z,57.15
2018-10-03T05:29:14.615Z,57.06
2018-10-03T05:30:14.380Z,57.45
2018-10-03T05:31:14.662Z,56.93
2018-10-03T05:32:14.699Z,56.96
2018-10-03T05:33:14.867Z,56.87
2018-10-03T05:34:14.738Z,56.84
2018-10-03T05:35:14.768Z,57.25
2018-10-03T05:36:14.531Z,57.35
2018-10-03T05:37:14.565Z,57.73
2018-10-03T05:38:14.585Z,57.64
2018-10-03T05:39:14.871Z,57.64
2018-10-03T05:40:14.903Z,57.73
2018-10-03T05:41:14.673Z,57.06
2018-10-03T05:42:14.945Z,57.06
2018-10-03T05:43:14.969Z,57.06
2018-10-03T05:44:14.997Z,57.15
2018-10-03T05:45:14.767Z,57.06
2018-10-03T05:46:14.797Z,56.96
2018-10-03T05:47:15.075Z,56.87
2018-10-03T05:48:14.851Z,56.87
2018-10-03T05:49:14.874Z,56.96
2018-10-03T05:50:14.891Z,56.87
2018-10-03T05:51:15.187Z,56.87
2018-10-03T05:52:14.945Z,56.87
2018-10-03T05:53:15.233Z,56.87
2018-10-03T05:54:15.003Z,56.87
2018-10-03T05:55:15.279Z,56.87
2018-10-03T05:56:15.055Z,56.87
2018-10-03T05:57:15.074Z,56.87
2018-10-03T05:58:15.361Z,56.87
2018-10-03T05:59:15.382Z,56.96
2018-10-03T06:00:15.413Z,56.96
2018-10-03T06:01:15.443Z,56.96
2018-10-03T06:02:15.459Z,56.96
2018-10-03T06:03:15.501Z,56.87
2018-10-03T06:04:15.529Z,57.15
2018-10-03T06:05:15.286Z,56.96
2018-10-03T06:06:15.567Z,56.96
2018-10-03T06:07:15.339Z,56.87
2018-10-03T06:08:15.361Z,57.06
2018-10-03T06:09:15.389Z,57.15
2018-10-03T06:10:15.684Z,57.25
2018-10-03T06:11:15.699Z,57.15
2018-10-03T06:12:15.567Z,56.87
2018-10-03T06:13:15.748Z,56.87
2018-10-03T06:14:15.523Z,57.25
2018-10-03T06:15:15.797Z,57.25
2018-10-03T06:16:15.831Z,57.35
2018-10-03T06:17:15.593Z,56.96
2018-10-03T06:18:15.883Z,57.25
2018-10-03T06:19:15.643Z,57.15
2018-10-03T06:20:15.929Z,57.15
2018-10-03T06:21:15.954Z,56.96
2018-10-03T06:22:15.981Z,57.35
2018-10-03T06:23:16.003Z,57.25
2018-10-03T06:24:16.034Z,57.06
2018-10-03T06:25:16.054Z,56.58
2018-10-03T06:26:16.080Z,56.67
2018-10-03T06:27:16.109Z,56.58
2018-10-03T06:28:16.279Z,56.77
2018-10-03T06:29:16.158Z,56.77
2018-10-03T06:30:16.183Z,57.06
2018-10-03T06:31:16.222Z,56.77
2018-10-03T06:32:16.238Z,56.77
2018-10-03T06:33:16.267Z,56.58
2018-10-03T06:34:16.035Z,56.67
2018-10-03T06:35:16.314Z,56.96
2018-10-03T06:36:16.340Z,57.06
2018-10-03T06:37:16.114Z,56.58
2018-10-03T06:38:16.400Z,56.96
2018-10-03T06:39:16.512Z,56.77
2018-10-03T06:40:16.484Z,56.77
2018-10-03T06:41:16.472Z,56.29
2018-10-03T06:42:16.239Z,56.96
2018-10-03T06:43:16.523Z,57.35
2018-10-03T06:44:16.548Z,56.96
2018-10-03T06:45:16.600Z,56.87
2018-10-03T06:46:16.596Z,57.06
2018-10-03T06:47:16.628Z,56.67
2018-10-03T06:48:16.648Z,56.58
2018-10-03T06:49:16.678Z,56.77
2018-10-03T06:50:16.708Z,56.38
2018-10-03T06:51:16.490Z,55.81
2018-10-03T06:52:16.501Z,56.2
2018-10-03T06:53:16.521Z,56.58
2018-10-03T06:54:16.545Z,56.58
2018-10-03T06:55:16.835Z,56.6
2018-10-03T06:56:16.597Z,56.38
2018-10-03T06:57:16.880Z,55.93
2018-10-03T06:58:16.652Z,55.23
2018-10-03T06:59:16.938Z,55.23
2018-10-03T07:00:16.709Z,54.85
2018-10-03T07:01:16.992Z,54.75
2018-10-03T07:02:16.764Z,54.85
2018-10-03T07:03:17.045Z,54.75
2018-10-03T07:04:16.822Z,54.75
2018-10-03T07:05:17.099Z,55.04
2018-10-03T07:06:17.125Z,54.94
2018-10-03T07:07:17.142Z,55.04
2018-10-03T07:08:17.169Z,55.2
2018-10-03T07:09:16.937Z,55.01
2018-10-03T07:10:17.220Z,55.3
2018-10-03T07:11:16.993Z,55.2
2018-10-03T07:12:17.279Z,55.59
2018-10-03T07:13:17.452Z,55.88
2018-10-03T07:14:17.077Z,55.78
2018-10-03T07:15:17.967Z,55.68
2018-10-03T07:16:17.121Z,55.98
2018-10-03T07:17:17.432Z,55.56
2018-10-03T07:18:17.430Z,56.04
2018-10-03T07:19:17.509Z,55.56
2018-10-03T07:20:17.764Z,55.66
2018-10-03T07:21:17.520Z,55.66
2018-10-03T07:22:17.541Z,55.37
2018-10-03T07:23:17.564Z,55.56
2018-10-03T07:24:17.592Z,55.37
2018-10-03T07:25:17.354Z,55.37
2018-10-03T07:26:17.959Z,55.66
2018-10-03T07:27:17.663Z,55.94
2018-10-03T07:28:17.435Z,55.56
2018-10-03T07:29:17.714Z,55.94
2018-10-03T07:30:17.742Z,55.66
2018-10-03T07:31:17.510Z,55.46
2018-10-03T07:32:17.537Z,55.37
2018-10-03T07:33:17.565Z,55.46
2018-10-03T07:34:17.587Z,55.46
2018-10-03T07:35:17.611Z,55.76
2018-10-03T07:36:17.904Z,55.76
2018-10-03T07:37:17.925Z,55.76
2018-10-03T07:38:17.945Z,55.76
2018-10-03T07:39:17.972Z,55.56
2018-10-03T07:40:17.741Z,56.14
2018-10-03T07:41:17.770Z,55.85
2018-10-03T07:42:17.792Z,55.63
2018-10-03T07:43:18.076Z,55.56
2018-10-03T07:44:18.098Z,56.04
2018-10-03T07:45:18.124Z,55.76
2018-10-03T07:46:17.899Z,55.73
2018-10-03T07:47:17.922Z,55.85
2018-10-03T07:48:18.201Z,55.82
2018-10-03T07:49:18.232Z,55.56
2018-10-03T07:50:18.255Z,55.73
2018-10-03T07:51:18.021Z,55.53
2018-10-03T07:52:18.307Z,55.53
2018-10-03T07:53:18.480Z,55.91
2018-10-03T07:54:18.102Z,55.44
2018-10-03T07:55:18.381Z,55.91
2018-10-03T07:56:18.547Z,55.63
2018-10-03T07:57:33.093Z,55.34
2018-10-03T07:58:18.463Z,55.73
2018-10-03T07:59:18.893Z,55.63
2018-10-03T08:00:18.513Z,55.73
2018-10-03T08:01:18.541Z,55.53
2018-10-03T08:02:18.562Z,56.11
2018-10-03T08:03:18.589Z,55.53
2018-10-03T08:04:18.359Z,55.73
2018-10-03T08:05:18.385Z,55.63
2018-10-03T08:06:18.666Z,55.53
2018-10-03T08:07:18.701Z,55.91
2018-10-03T08:08:18.723Z,55.44
2018-10-03T08:09:18.500Z,55.63
2018-10-03T08:10:18.510Z,55.73
2018-10-03T08:11:18.790Z,55.73
2018-10-03T08:12:18.566Z,55.82
2018-10-03T08:13:18.620Z,55.63
2018-10-03T08:14:18.625Z,55.82
2018-10-03T08:15:19.007Z,55.91
2018-10-03T08:16:18.664Z,55.82
2018-10-03T08:17:18.744Z,55.73
2018-10-03T08:18:18.715Z,55.82
2018-10-03T08:19:18.741Z,56.01
2018-10-03T08:20:18.766Z,56.11
2018-10-03T08:21:18.789Z,56.01
2018-10-03T08:22:19.086Z,55.63
2018-10-03T08:23:18.844Z,56.11
2018-10-03T08:24:19.139Z,55.73
2018-10-03T08:25:19.153Z,55.82
2018-10-03T08:26:18.930Z,55.73
2018-10-03T08:27:19.210Z,55.63
2018-10-03T08:28:19.238Z,55.73
2018-10-03T08:29:19.257Z,55.63
2018-10-03T08:30:19.278Z,55.73
2018-10-03T08:31:19.305Z,55.73
2018-10-03T08:32:19.484Z,55.73
2018-10-03T08:33:19.532Z,55.44
2018-10-03T08:34:19.145Z,55.63
2018-10-03T08:35:19.156Z,55.63
2018-10-03T08:36:19.196Z,56.01
2018-10-03T08:37:19.211Z,55.91
2018-10-03T08:38:19.228Z,55.44
2018-10-03T08:39:19.254Z,56.01
2018-10-03T08:40:19.543Z,55.63
2018-10-03T08:41:19.558Z,55.63
2018-10-03T08:42:19.587Z,55.63
2018-10-03T08:43:19.616Z,55.44
2018-10-03T08:44:19.390Z,55.15
2018-10-03T08:45:19.410Z,55.34
2018-10-03T08:46:19.434Z,54.86
2018-10-03T08:47:19.456Z,54.67
2018-10-03T08:48:19.488Z,54.47
2018-10-03T08:49:19.511Z,54.67
2018-10-03T08:50:19.793Z,54.28
2018-10-03T08:51:19.821Z,54.09
2018-10-03T08:52:19.588Z,54.38
2018-10-03T08:53:19.612Z,54.57
2018-10-03T08:54:19.639Z,54.28
2018-10-03T08:55:19.920Z,54
2018-10-03T08:56:19.689Z,53.9
2018-10-03T08:57:19.973Z,54.47
2018-10-03T08:58:20.320Z,54.47
2018-10-03T08:59:20.026Z,54.57
2018-10-03T09:00:20.051Z,54.47
2018-10-03T09:01:20.079Z,54.57
2018-10-03T09:02:20.105Z,54.47
2018-10-03T09:03:19.879Z,54.47
2018-10-03T09:04:19.898Z,54
2018-10-03T09:05:20.178Z,53.8
2018-10-03T09:06:20.210Z,53.8
2018-10-03T09:07:20.241Z,54.47
2018-10-03T09:08:19.994Z,54.67
2018-10-03T09:09:20.280Z,54.86
2018-10-03T09:10:20.044Z,54.09
2018-10-03T09:11:20.076Z,54.09
2018-10-03T09:12:20.354Z,54.47
2018-10-03T09:13:20.383Z,54.19
2018-10-03T09:14:20.148Z,54.28
2018-10-03T09:15:20.172Z,54.57
2018-10-03T09:16:20.456Z,54.47
2018-10-03T09:17:20.489Z,53.7
2018-10-03T09:18:20.513Z,54.09
2018-10-03T09:19:20.538Z,54.77
2018-10-03T09:20:20.559Z,54.67
2018-10-03T09:21:20.725Z,54.86
2018-10-03T09:22:20.351Z,54.47
2018-10-03T09:23:20.641Z,54.47
2018-10-03T09:24:20.661Z,54.38
2018-10-03T09:25:20.693Z,54.57
2018-10-03T09:26:20.457Z,54.47
2018-10-03T09:27:20.739Z,54.19
2018-10-03T09:28:20.849Z,53.8
2018-10-03T09:29:20.528Z,53.8
2018-10-03T09:30:20.551Z,53.7
2018-10-03T09:31:20.845Z,53.42
2018-10-03T09:32:20.872Z,53.7
2018-10-03T09:33:20.932Z,53.8
2018-10-03T09:34:20.915Z,53.9
2018-10-03T09:35:20.937Z,54.19
2018-10-03T09:36:20.972Z,54
2018-10-03T09:37:20.998Z,54.86
2018-10-03T09:38:20.761Z,54.47
2018-10-03T09:39:20.796Z,54.47
2018-10-03T09:40:21.077Z,54.38
2018-10-03T09:41:21.105Z,54.12
2018-10-03T09:42:21.119Z,54.31
2018-10-03T09:43:20.887Z,54.79
2018-10-03T09:44:20.963Z,53.83
2018-10-03T09:45:21.198Z,53.35
2018-10-03T09:46:20.967Z,53.06
2018-10-03T09:47:20.988Z,52.68
2018-10-03T09:48:21.271Z,52.87
2018-10-03T09:49:21.301Z,52.58
2018-10-03T09:50:21.321Z,52.48
2018-10-03T09:51:21.095Z,52.58
2018-10-03T09:52:21.377Z,52.48
2018-10-03T09:53:21.403Z,52.77
2018-10-03T09:54:21.174Z,52.36
2018-10-03T09:55:21.191Z,52.97
2018-10-03T09:56:21.480Z,52.55
2018-10-03T09:57:36.154Z,52.36
2018-10-03T09:58:21.523Z,52.55
2018-10-03T09:59:21.296Z,52.58
2018-10-03T10:00:21.775Z,52.55
2018-10-03T10:01:21.605Z,52.75
2018-10-03T10:02:21.627Z,52.55
2018-10-03T10:03:21.403Z,52.75
2018-10-03T10:04:21.685Z,53.23
2018-10-03T10:05:21.451Z,52.84
2018-10-03T10:06:21.732Z,53.23
2018-10-03T10:07:21.499Z,52.68
2018-10-03T10:08:21.782Z,53.35
2018-10-03T10:09:21.818Z,52.87
2018-10-03T10:10:21.981Z,52.97
2018-10-03T10:11:21.753Z,52.48
2018-10-03T10:12:21.884Z,52.68
2018-10-03T10:13:21.665Z,52.48
2018-10-03T10:14:21.947Z,52.58
2018-10-03T10:15:21.705Z,52.2
2018-10-03T10:16:21.742Z,52.58
2018-10-03T10:17:21.757Z,52.39
2018-10-03T10:18:22.033Z,51.72
2018-10-03T10:19:22.070Z,52.2
2018-10-03T10:20:22.091Z,51.84
2018-10-03T10:21:22.170Z,51.72
2018-10-03T10:22:22.143Z,51.62
2018-10-03T10:23:21.908Z,51.45
2018-10-03T10:24:21.932Z,51.33
2018-10-03T10:25:22.214Z,51.04
2018-10-03T10:26:21.982Z,51.23
2018-10-03T10:27:22.264Z,50.87
2018-10-03T10:28:22.044Z,51.74
2018-10-03T10:29:22.320Z,51.62
2018-10-03T10:30:22.348Z,51.45
2018-10-03T10:31:22.370Z,51.55
2018-10-03T10:32:22.639Z,51.74
2018-10-03T10:33:22.421Z,51.74
2018-10-03T10:34:22.214Z,51.07
2018-10-03T10:35:22.473Z,50.78
2018-10-03T10:36:22.498Z,50.1
2018-10-03T10:37:22.273Z,50.1
2018-10-03T10:38:22.547Z,49.91
2018-10-03T10:39:22.322Z,49.99
2018-10-03T10:40:22.503Z,50.08
2018-10-03T10:41:22.692Z,50.08
2018-10-03T10:42:22.395Z,50.08
2018-10-03T10:43:22.897Z,50.46
2018-10-03T10:44:22.703Z,50.95
2018-10-03T10:45:22.731Z,51.14
2018-10-03T10:46:22.755Z,50.76
2018-10-03T10:47:22.519Z,51.14
2018-10-03T10:48:22.808Z,50.85
2018-10-03T10:49:22.827Z,51.04
2018-10-03T10:50:23.089Z,50.08
2018-10-03T10:51:22.624Z,49.99
2018-10-03T10:52:22.912Z,49.69
2018-10-03T10:53:22.933Z,49.79
2018-10-03T10:54:22.964Z,49.99
2018-10-03T10:55:22.991Z,49.91
2018-10-03T10:56:22.753Z,50.08
2018-10-03T10:57:23.040Z,49.6
2018-10-03T10:58:22.804Z,49.89
2018-10-03T10:59:23.086Z,49.6
2018-10-03T11:00:23.110Z,49.99
2018-10-03T11:01:22.882Z,49.89
2018-10-03T11:02:22.904Z,49.69
2018-10-03T11:03:23.202Z,49.6
2018-10-03T11:04:23.212Z,50.08
2018-10-03T11:05:23.244Z,49.99
2018-10-03T11:06:23.292Z,49.22
2018-10-03T11:07:23.038Z,49.31
2018-10-03T11:08:23.061Z,49.41
2018-10-03T11:09:23.342Z,49.12
2018-10-03T11:10:23.111Z,49.12
2018-10-03T11:11:23.136Z,49.89
2018-10-03T11:12:23.427Z,50.08
2018-10-03T11:13:23.234Z,50.08
2018-10-03T11:14:23.470Z,49.41
2018-10-03T11:15:23.557Z,49.51
2018-10-03T11:16:23.264Z,49.31
2018-10-03T11:17:23.288Z,49.51
2018-10-03T11:18:23.570Z,49.6
2018-10-03T11:19:23.543Z,49.51
2018-10-03T11:20:23.363Z,49.31
2018-10-03T11:21:23.656Z,49.31
2018-10-03T11:22:23.672Z,49.38
2018-10-03T11:23:23.451Z,49.19
2018-10-03T11:24:23.631Z,49.29
2018-10-03T11:25:23.756Z,49.1
2018-10-03T11:26:23.518Z,49.31
2018-10-03T11:27:23.552Z,49.29
2018-10-03T11:28:23.572Z,49.69
2018-10-03T11:29:23.861Z,49.41
2018-10-03T11:30:23.622Z,49.31
2018-10-03T11:31:23.643Z,49.12
2018-10-03T11:32:23.677Z,49.79
2018-10-03T11:33:23.959Z,49.41
2018-10-03T11:34:23.723Z,49.99
2018-10-03T11:35:24.011Z,49.99
2018-10-03T11:36:24.030Z,49.6
2018-10-03T11:37:24.065Z,49.99
2018-10-03T11:38:24.280Z,49.31
2018-10-03T11:39:24.110Z,48.93
2018-10-03T11:40:24.137Z,49.6
2018-10-03T11:41:24.160Z,49.6
2018-10-03T11:42:23.928Z,49.51
2018-10-03T11:43:23.956Z,49.51
2018-10-03T11:44:24.237Z,49.22
2018-10-03T11:45:24.261Z,49.12
2018-10-03T11:46:24.284Z,49.02
2018-10-03T11:47:24.315Z,48.74
2018-10-03T11:48:24.076Z,48.61
2018-10-03T11:49:24.109Z,48.45
2018-10-03T11:50:24.131Z,48.64
2018-10-03T11:51:24.157Z,48.33
2018-10-03T11:52:24.443Z,48.64
2018-10-03T11:53:24.208Z,48.61
2018-10-03T11:54:24.500Z,48.33
2018-10-03T11:55:24.510Z,48.43
2018-10-03T11:56:24.544Z,48.33
2018-10-03T11:57:24.568Z,48.61
2018-10-03T11:58:24.340Z,48.33
2018-10-03T11:59:24.719Z,48.54
2018-10-03T12:00:24.653Z,48.52
2018-10-03T12:01:24.408Z,48.33
2018-10-03T12:02:24.706Z,48.13
2018-10-03T12:03:24.857Z,48.33
2018-10-03T12:04:24.496Z,48.23
2018-10-03T12:05:24.771Z,48.04
2018-10-03T12:06:24.854Z,48.43
2018-10-03T12:07:24.836Z,48.52
2018-10-03T12:08:24.592Z,48.52
2018-10-03T12:09:25.203Z,48.52
2018-10-03T12:10:24.922Z,48.33
2018-10-03T12:11:24.935Z,48.52
2018-10-03T12:12:24.697Z,48.23
2018-10-03T12:13:24.978Z,48.43
2018-10-03T12:14:24.744Z,48.43
2018-10-03T12:15:24.796Z,48.23
2018-10-03T12:16:25.114Z,48.33
2018-10-03T12:17:25.079Z,48.43
2018-10-03T12:18:25.104Z,48.23
2018-10-03T12:19:24.868Z,48.61
2018-10-03T12:20:24.902Z,48.52
2018-10-03T12:21:24.927Z,48.33
2018-10-03T12:22:25.213Z,48.33
2018-10-03T12:23:25.229Z,48.13
2018-10-03T12:24:25.254Z,48.43
2018-10-03T12:25:25.295Z,48.52
2018-10-03T12:26:25.306Z,48.61
2018-10-03T12:27:25.333Z,48.52
2018-10-03T12:28:25.364Z,48.61
2018-10-03T12:29:25.386Z,48.52
2018-10-03T12:30:25.424Z,48.43
2018-10-03T12:31:25.182Z,48.52
2018-10-03T12:32:25.206Z,48.52
2018-10-03T12:33:25.667Z,48.52
2018-10-03T12:34:25.510Z,48.52
2018-10-03T12:35:25.533Z,48.52
2018-10-03T12:36:25.566Z,48.52
2018-10-03T12:37:25.598Z,48.43
2018-10-03T12:38:25.612Z,48.43
2018-10-03T12:39:25.640Z,48.43
2018-10-03T12:40:25.662Z,48.52
2018-10-03T12:41:25.684Z,48.71
2018-10-03T12:42:25.710Z,48.71
2018-10-03T12:43:25.490Z,48.71
2018-10-03T12:44:25.517Z,48.52
2018-10-03T12:45:25.794Z,48.71
2018-10-03T12:46:25.822Z,48.43
2018-10-03T12:47:25.842Z,48.9
2018-10-03T12:48:25.611Z,48.71
2018-10-03T12:49:25.891Z,48.71
2018-10-03T12:50:25.918Z,49
2018-10-03T12:51:25.682Z,48.71
2018-10-03T12:52:25.719Z,48.61
2018-10-03T12:53:25.991Z,48.61
2018-10-03T12:54:26.027Z,48.71
2018-10-03T12:55:26.041Z,48.71